sensor_id;sensor_type;location;lat;lon;timestamp;temperature;humidity
23251;DHT22;11794;49.730;10.088;2022-12-07T00:02:16;2.70;99.90
23251;DHT22;11794;49.730;10.088;2022-12-07T00:04:41;2.60;99.90
23251;DHT22;11794;49.730;10.088;2022-12-07T00:07:07;2.60;99.90
23251;DHT22;11794;49.730;10.088;2022-12-07T00:09:32;2.50;99.90
23251;DHT22;11794;49.730;10.088;2022-12-07T00:11:58;2.50;99.90
23251;DHT22;11794;49.730;10.088;2022-12-07T00:14:23;2.40;99.90
23251;DHT22;11794;49.730;10.088;2022-12-07T00:16:50;2.50;99.90
23251;DHT22;11794;49.730;10.088;2022-12-07T00:19:16;2.50;99.90
23251;DHT22;11794;49.730;10.088;2022-12-07T00:21:42;2.50;99.90
23251;DHT22;11794;49.730;10.088;2022-12-07T00:24:07;2.50;99.90
23251;DHT22;11794;49.730;10.088;2022-12-07T00:26:35;2.50;99.90
23251;DHT22;11794;49.730;10.088;2022-12-07T00:29:04;2.50;99.90
23251;DHT22;11794;49.730;10.088;2022-12-07T00:31:34;2.50;99.90
23251;DHT22;11794;49.730;10.088;2022-12-07T00:34:01;2.50;99.90
23251;DHT22;11794;49.730;10.088;2022-12-07T00:36:27;2.60;99.90
23251;DHT22;11794;49.730;10.088;2022-12-07T00:38:53;2.60;99.90
23251;DHT22;11794;49.730;10.088;2022-12-07T00:41:24;2.60;99.90
23251;DHT22;11794;49.730;10.088;2022-12-07T00:43:50;2.60;99.90
23251;DHT22;11794;49.730;10.088;2022-12-07T00:46:16;2.60;99.90
23251;DHT22;11794;49.730;10.088;2022-12-07T00:48:42;2.60;99.90
23251;DHT22;11794;49.730;10.088;2022-12-07T00:51:09;2.60;99.90
23251;DHT22;11794;49.730;10.088;2022-12-07T00:53:36;2.60;99.90
23251;DHT22;11794;49.730;10.088;2022-12-07T00:56:12;2.60;99.90
23251;DHT22;11794;49.730;10.088;2022-12-07T00:58:39;2.60;99.90
23251;DHT22;11794;49.730;10.088;2022-12-07T01:01:06;2.60;99.90
23251;DHT22;11794;49.730;10.088;2022-12-07T01:03:31;2.60;99.90
23251;DHT22;11794;49.730;10.088;2022-12-07T01:05:57;2.50;99.90
23251;DHT22;11794;49.730;10.088;2022-12-07T01:08:24;2.50;99.90
23251;DHT22;11794;49.730;10.088;2022-12-07T01:10:56;2.60;99.90
23251;DHT22;11794;49.730;10.088;2022-12-07T01:13:22;2.60;99.90
23251;DHT22;11794;49.730;10.088;2022-12-07T01:15:47;2.60;99.90
23251;DHT22;11794;49.730;10.088;2022-12-07T01:18:13;2.60;99.90
23251;DHT22;11794;49.730;10.088;2022-12-07T01:20:38;2.70;99.90
23251;DHT22;11794;49.730;10.088;2022-12-07T01:23:04;2.70;99.90
23251;DHT22;11794;49.730;10.088;2022-12-07T01:25:31;2.70;99.90
23251;DHT22;11794;49.730;10.088;2022-12-07T01:27:56;2.60;99.90
23251;DHT22;11794;49.730;10.088;2022-12-07T01:30:22;2.60;99.90
23251;DHT22;11794;49.730;10.088;2022-12-07T01:32:47;2.50;99.90
23251;DHT22;11794;49.730;10.088;2022-12-07T01:35:13;2.50;99.90
23251;DHT22;11794;49.730;10.088;2022-12-07T01:37:39;2.60;99.90
23251;DHT22;11794;49.730;10.088;2022-12-07T01:40:07;2.50;99.90
23251;DHT22;11794;49.730;10.088;2022-12-07T01:42:34;2.50;99.90
23251;DHT22;11794;49.730;10.088;2022-12-07T01:47:52;2.40;99.90
23251;DHT22;11794;49.730;10.088;2022-12-07T01:50:19;2.40;99.90
23251;DHT22;11794;49.730;10.088;2022-12-07T01:52:48;2.40;99.90
23251;DHT22;11794;49.730;10.088;2022-12-07T01:55:15;2.40;99.90
23251;DHT22;11794;49.730;10.088;2022-12-07T01:57:45;2.30;99.90
23251;DHT22;11794;49.730;10.088;2022-12-07T02:00:12;2.30;99.90
23251;DHT22;11794;49.730;10.088;2022-12-07T02:02:47;2.30;99.90
23251;DHT22;11794;49.730;10.088;2022-12-07T02:05:14;2.40;99.90
23251;DHT22;11794;49.730;10.088;2022-12-07T02:07:40;2.40;99.90
23251;DHT22;11794;49.730;10.088;2022-12-07T02:10:17;2.40;99.90
23251;DHT22;11794;49.730;10.088;2022-12-07T02:12:51;2.40;99.90
23251;DHT22;11794;49.730;10.088;2022-12-07T02:15:20;2.40;99.90
23251;DHT22;11794;49.730;10.088;2022-12-07T02:18:05;2.40;99.90
23251;DHT22;11794;49.730;10.088;2022-12-07T02:26:24;2.40;99.90
23251;DHT22;11794;49.730;10.088;2022-12-07T02:29:10;2.50;99.90
23251;DHT22;11794;49.730;10.088;2022-12-07T02:34:54;2.40;99.90
23251;DHT22;11794;49.730;10.088;2022-12-07T02:37:50;2.40;99.90
23251;DHT22;11794;49.730;10.088;2022-12-07T02:40:24;2.40;99.90
23251;DHT22;11794;49.730;10.088;2022-12-07T02:42:55;2.40;99.90
23251;DHT22;11794;49.730;10.088;2022-12-07T02:45:25;2.40;99.90
23251;DHT22;11794;49.730;10.088;2022-12-07T02:47:51;2.40;99.90
23251;DHT22;11794;49.730;10.088;2022-12-07T02:50:20;2.40;99.90
23251;DHT22;11794;49.730;10.088;2022-12-07T02:52:46;2.40;99.90
23251;DHT22;11794;49.730;10.088;2022-12-07T02:55:13;2.40;99.90
23251;DHT22;11794;49.730;10.088;2022-12-07T03:00:18;2.40;99.90
23251;DHT22;11794;49.730;10.088;2022-12-07T03:03:17;2.30;99.90
23251;DHT22;11794;49.730;10.088;2022-12-07T03:05:52;2.30;99.90
23251;DHT22;11794;49.730;10.088;2022-12-07T03:11:44;2.30;99.90
23251;DHT22;11794;49.730;10.088;2022-12-07T03:14:24;2.30;99.90
23251;DHT22;11794;49.730;10.088;2022-12-07T03:17:24;2.30;99.90
23251;DHT22;11794;49.730;10.088;2022-12-07T03:19:51;2.30;99.90
23251;DHT22;11794;49.730;10.088;2022-12-07T03:22:19;2.30;99.90
23251;DHT22;11794;49.730;10.088;2022-12-07T03:24:58;2.40;99.90
23251;DHT22;11794;49.730;10.088;2022-12-07T03:27:44;2.40;99.90
23251;DHT22;11794;49.730;10.088;2022-12-07T03:30:18;2.30;99.90
23251;DHT22;11794;49.730;10.088;2022-12-07T03:32:50;2.30;99.90
23251;DHT22;11794;49.730;10.088;2022-12-07T03:35:45;2.30;99.90
23251;DHT22;11794;49.730;10.088;2022-12-07T03:38:23;2.40;99.90
23251;DHT22;11794;49.730;10.088;2022-12-07T03:41:01;2.40;99.90
23251;DHT22;11794;49.730;10.088;2022-12-07T03:43:30;2.40;99.90
23251;DHT22;11794;49.730;10.088;2022-12-07T03:46:01;2.40;99.90
23251;DHT22;11794;49.730;10.088;2022-12-07T03:48:37;2.30;99.90
23251;DHT22;11794;49.730;10.088;2022-12-07T03:51:13;2.30;99.90
23251;DHT22;11794;49.730;10.088;2022-12-07T03:53:50;2.30;99.90
23251;DHT22;11794;49.730;10.088;2022-12-07T03:56:18;2.30;99.90
23251;DHT22;11794;49.730;10.088;2022-12-07T03:58:43;2.40;99.90
23251;DHT22;11794;49.730;10.088;2022-12-07T04:01:10;2.40;99.90
23251;DHT22;11794;49.730;10.088;2022-12-07T04:03:35;2.40;99.90
23251;DHT22;11794;49.730;10.088;2022-12-07T04:06:01;2.40;99.90
23251;DHT22;11794;49.730;10.088;2022-12-07T04:08:27;2.30;99.90
23251;DHT22;11794;49.730;10.088;2022-12-07T04:10:52;2.30;99.90
23251;DHT22;11794;49.730;10.088;2022-12-07T04:13:18;2.30;99.90
23251;DHT22;11794;49.730;10.088;2022-12-07T04:15:43;2.30;99.90
23251;DHT22;11794;49.730;10.088;2022-12-07T04:18:09;2.30;99.90
23251;DHT22;11794;49.730;10.088;2022-12-07T04:20:34;2.30;99.90
23251;DHT22;11794;49.730;10.088;2022-12-07T04:23:00;2.20;99.90
23251;DHT22;11794;49.730;10.088;2022-12-07T04:25:25;2.20;99.90
23251;DHT22;11794;49.730;10.088;2022-12-07T04:27:51;2.20;99.90
23251;DHT22;11794;49.730;10.088;2022-12-07T04:30:17;2.20;99.90
23251;DHT22;11794;49.730;10.088;2022-12-07T04:32:42;2.20;99.90
23251;DHT22;11794;49.730;10.088;2022-12-07T04:35:08;2.20;99.90
23251;DHT22;11794;49.730;10.088;2022-12-07T04:37:34;2.30;99.90
23251;DHT22;11794;49.730;10.088;2022-12-07T04:39:59;2.20;99.90
23251;DHT22;11794;49.730;10.088;2022-12-07T04:42:25;2.30;99.90
23251;DHT22;11794;49.730;10.088;2022-12-07T04:44:50;2.30;99.90
23251;DHT22;11794;49.730;10.088;2022-12-07T04:47:16;2.20;99.90
23251;DHT22;11794;49.730;10.088;2022-12-07T04:49:42;2.20;99.90
23251;DHT22;11794;49.730;10.088;2022-12-07T04:52:07;2.30;99.90
23251;DHT22;11794;49.730;10.088;2022-12-07T04:54:33;2.30;99.90
23251;DHT22;11794;49.730;10.088;2022-12-07T04:56:59;2.30;99.90
23251;DHT22;11794;49.730;10.088;2022-12-07T04:59:24;2.30;99.90
23251;DHT22;11794;49.730;10.088;2022-12-07T05:01:50;2.30;99.90
23251;DHT22;11794;49.730;10.088;2022-12-07T05:04:16;2.30;99.90
23251;DHT22;11794;49.730;10.088;2022-12-07T05:06:43;2.30;99.90
23251;DHT22;11794;49.730;10.088;2022-12-07T05:09:08;2.30;99.90
23251;DHT22;11794;49.730;10.088;2022-12-07T05:11:34;2.30;99.90
23251;DHT22;11794;49.730;10.088;2022-12-07T05:16:34;2.20;99.90
23251;DHT22;11794;49.730;10.088;2022-12-07T05:19:00;2.10;99.90
23251;DHT22;11794;49.730;10.088;2022-12-07T05:21:25;2.10;99.90
23251;DHT22;11794;49.730;10.088;2022-12-07T05:23:51;2.20;99.90
23251;DHT22;11794;49.730;10.088;2022-12-07T05:26:18;2.20;99.90
23251;DHT22;11794;49.730;10.088;2022-12-07T05:28:43;2.20;99.90
23251;DHT22;11794;49.730;10.088;2022-12-07T05:31:09;2.20;99.90
23251;DHT22;11794;49.730;10.088;2022-12-07T05:33:34;2.20;99.90
23251;DHT22;11794;49.730;10.088;2022-12-07T05:36:00;2.20;99.90
23251;DHT22;11794;49.730;10.088;2022-12-07T05:38:33;2.20;99.90
23251;DHT22;11794;49.730;10.088;2022-12-07T05:41:03;2.20;99.90
23251;DHT22;11794;49.730;10.088;2022-12-07T05:43:30;2.20;99.90
23251;DHT22;11794;49.730;10.088;2022-12-07T05:45:56;2.20;99.90
23251;DHT22;11794;49.730;10.088;2022-12-07T05:48:21;2.20;99.90
23251;DHT22;11794;49.730;10.088;2022-12-07T05:50:48;2.20;99.90
23251;DHT22;11794;49.730;10.088;2022-12-07T05:53:14;2.20;99.90
23251;DHT22;11794;49.730;10.088;2022-12-07T05:55:40;2.20;99.90
23251;DHT22;11794;49.730;10.088;2022-12-07T05:58:05;2.10;99.90
23251;DHT22;11794;49.730;10.088;2022-12-07T06:00:50;2.20;99.90
23251;DHT22;11794;49.730;10.088;2022-12-07T06:03:15;2.20;99.90
23251;DHT22;11794;49.730;10.088;2022-12-07T06:05:41;2.10;99.90
23251;DHT22;11794;49.730;10.088;2022-12-07T06:08:07;2.20;99.90
23251;DHT22;11794;49.730;10.088;2022-12-07T06:10:33;2.10;99.90
23251;DHT22;11794;49.730;10.088;2022-12-07T06:12:58;2.20;99.90
23251;DHT22;11794;49.730;10.088;2022-12-07T06:15:24;2.10;99.90
23251;DHT22;11794;49.730;10.088;2022-12-07T06:17:49;2.20;99.90
23251;DHT22;11794;49.730;10.088;2022-12-07T06:20:15;2.10;99.90
23251;DHT22;11794;49.730;10.088;2022-12-07T06:22:41;2.10;99.90
23251;DHT22;11794;49.730;10.088;2022-12-07T06:25:06;2.10;99.90
23251;DHT22;11794;49.730;10.088;2022-12-07T06:27:32;2.10;99.90
23251;DHT22;11794;49.730;10.088;2022-12-07T06:29:58;2.10;99.90
23251;DHT22;11794;49.730;10.088;2022-12-07T06:32:24;2.10;99.90
23251;DHT22;11794;49.730;10.088;2022-12-07T06:34:49;2.10;99.90
23251;DHT22;11794;49.730;10.088;2022-12-07T06:37:16;2.10;99.90
23251;DHT22;11794;49.730;10.088;2022-12-07T06:39:42;2.10;99.90
23251;DHT22;11794;49.730;10.088;2022-12-07T06:42:07;2.10;99.90
23251;DHT22;11794;49.730;10.088;2022-12-07T06:44:33;2.10;99.90
23251;DHT22;11794;49.730;10.088;2022-12-07T06:46:58;2.20;99.90
23251;DHT22;11794;49.730;10.088;2022-12-07T06:49:24;2.20;99.90
23251;DHT22;11794;49.730;10.088;2022-12-07T06:51:49;2.20;99.90
23251;DHT22;11794;49.730;10.088;2022-12-07T06:54:15;2.20;99.90
23251;DHT22;11794;49.730;10.088;2022-12-07T06:56:41;2.20;99.90
23251;DHT22;11794;49.730;10.088;2022-12-07T06:59:07;2.20;99.90
23251;DHT22;11794;49.730;10.088;2022-12-07T07:01:34;2.20;99.90
23251;DHT22;11794;49.730;10.088;2022-12-07T07:04:00;2.30;99.90
23251;DHT22;11794;49.730;10.088;2022-12-07T07:06:26;2.30;99.90
23251;DHT22;11794;49.730;10.088;2022-12-07T07:08:51;2.20;99.90
23251;DHT22;11794;49.730;10.088;2022-12-07T07:11:17;2.30;99.90
23251;DHT22;11794;49.730;10.088;2022-12-07T07:13:42;2.30;99.90
23251;DHT22;11794;49.730;10.088;2022-12-07T07:16:08;2.30;99.90
23251;DHT22;11794;49.730;10.088;2022-12-07T07:18:34;2.40;99.90
23251;DHT22;11794;49.730;10.088;2022-12-07T07:21:00;2.40;99.90
23251;DHT22;11794;49.730;10.088;2022-12-07T07:23:26;2.40;99.90
23251;DHT22;11794;49.730;10.088;2022-12-07T07:25:52;2.40;99.90
23251;DHT22;11794;49.730;10.088;2022-12-07T07:28:17;2.40;99.90
23251;DHT22;11794;49.730;10.088;2022-12-07T07:30:43;2.40;99.90
23251;DHT22;11794;49.730;10.088;2022-12-07T07:33:09;2.50;99.90
23251;DHT22;11794;49.730;10.088;2022-12-07T07:35:35;2.50;99.90
23251;DHT22;11794;49.730;10.088;2022-12-07T07:38:02;2.50;99.90
23251;DHT22;11794;49.730;10.088;2022-12-07T07:40:28;2.50;99.90
23251;DHT22;11794;49.730;10.088;2022-12-07T07:42:57;2.50;99.90
23251;DHT22;11794;49.730;10.088;2022-12-07T07:45:24;2.60;99.90
23251;DHT22;11794;49.730;10.088;2022-12-07T07:47:50;2.60;99.90
23251;DHT22;11794;49.730;10.088;2022-12-07T07:50:16;2.50;99.90
23251;DHT22;11794;49.730;10.088;2022-12-07T07:52:42;2.60;99.90
23251;DHT22;11794;49.730;10.088;2022-12-07T07:55:08;2.60;99.90
23251;DHT22;11794;49.730;10.088;2022-12-07T07:57:38;2.60;99.90
23251;DHT22;11794;49.730;10.088;2022-12-07T08:00:06;2.70;99.90
23251;DHT22;11794;49.730;10.088;2022-12-07T08:02:32;2.70;99.90
23251;DHT22;11794;49.730;10.088;2022-12-07T08:04:58;2.70;99.90
23251;DHT22;11794;49.730;10.088;2022-12-07T08:07:23;2.80;99.90
23251;DHT22;11794;49.730;10.088;2022-12-07T08:09:49;2.70;99.90
23251;DHT22;11794;49.730;10.088;2022-12-07T08:12:14;2.70;99.90
23251;DHT22;11794;49.730;10.088;2022-12-07T08:14:40;2.70;99.90
23251;DHT22;11794;49.730;10.088;2022-12-07T08:17:06;2.80;99.90
23251;DHT22;11794;49.730;10.088;2022-12-07T08:19:32;2.80;99.90
23251;DHT22;11794;49.730;10.088;2022-12-07T08:21:58;2.80;99.90
23251;DHT22;11794;49.730;10.088;2022-12-07T08:24:24;2.90;99.90
23251;DHT22;11794;49.730;10.088;2022-12-07T08:26:50;2.90;99.90
23251;DHT22;11794;49.730;10.088;2022-12-07T08:29:15;3.00;99.90
23251;DHT22;11794;49.730;10.088;2022-12-07T08:31:41;3.00;99.90
23251;DHT22;11794;49.730;10.088;2022-12-07T08:34:07;3.00;99.90
23251;DHT22;11794;49.730;10.088;2022-12-07T08:36:32;3.10;99.90
23251;DHT22;11794;49.730;10.088;2022-12-07T08:38:58;3.00;99.90
23251;DHT22;11794;49.730;10.088;2022-12-07T08:41:23;3.00;99.90
23251;DHT22;11794;49.730;10.088;2022-12-07T08:43:49;3.10;99.90
23251;DHT22;11794;49.730;10.088;2022-12-07T08:49:12;3.10;99.90
23251;DHT22;11794;49.730;10.088;2022-12-07T08:51:39;3.10;99.90
23251;DHT22;11794;49.730;10.088;2022-12-07T08:54:10;3.10;99.90
23251;DHT22;11794;49.730;10.088;2022-12-07T08:56:36;3.10;99.90
23251;DHT22;11794;49.730;10.088;2022-12-07T08:59:04;3.10;99.90
23251;DHT22;11794;49.730;10.088;2022-12-07T09:01:29;3.10;99.90
23251;DHT22;11794;49.730;10.088;2022-12-07T09:03:55;3.10;99.90
23251;DHT22;11794;49.730;10.088;2022-12-07T09:06:21;3.10;99.90
23251;DHT22;11794;49.730;10.088;2022-12-07T09:08:48;3.10;99.90
23251;DHT22;11794;49.730;10.088;2022-12-07T09:11:15;3.20;99.90
23251;DHT22;11794;49.730;10.088;2022-12-07T09:13:40;3.20;99.90
23251;DHT22;11794;49.730;10.088;2022-12-07T09:16:06;3.20;99.90
23251;DHT22;11794;49.730;10.088;2022-12-07T09:18:31;3.20;99.90
23251;DHT22;11794;49.730;10.088;2022-12-07T09:20:57;3.20;99.90
23251;DHT22;11794;49.730;10.088;2022-12-07T09:23:23;3.20;99.90
23251;DHT22;11794;49.730;10.088;2022-12-07T09:25:48;3.30;99.90
23251;DHT22;11794;49.730;10.088;2022-12-07T09:28:14;3.40;99.90
23251;DHT22;11794;49.730;10.088;2022-12-07T09:30:45;3.40;99.90
23251;DHT22;11794;49.730;10.088;2022-12-07T09:33:12;3.50;99.90
23251;DHT22;11794;49.730;10.088;2022-12-07T09:35:37;3.50;99.90
23251;DHT22;11794;49.730;10.088;2022-12-07T09:38:03;3.50;99.90
23251;DHT22;11794;49.730;10.088;2022-12-07T09:40:28;3.50;99.90
23251;DHT22;11794;49.730;10.088;2022-12-07T09:42:54;3.50;99.90
23251;DHT22;11794;49.730;10.088;2022-12-07T09:45:27;3.50;99.90
23251;DHT22;11794;49.730;10.088;2022-12-07T09:47:54;3.60;99.90
23251;DHT22;11794;49.730;10.088;2022-12-07T09:50:23;3.60;99.90
23251;DHT22;11794;49.730;10.088;2022-12-07T09:52:50;3.60;99.90
23251;DHT22;11794;49.730;10.088;2022-12-07T09:55:23;3.70;99.90
23251;DHT22;11794;49.730;10.088;2022-12-07T09:57:50;3.80;99.90
23251;DHT22;11794;49.730;10.088;2022-12-07T10:00:19;3.90;99.90
23251;DHT22;11794;49.730;10.088;2022-12-07T10:02:55;4.00;99.90
23251;DHT22;11794;49.730;10.088;2022-12-07T10:05:26;4.10;99.90
23251;DHT22;11794;49.730;10.088;2022-12-07T10:07:53;4.20;99.90
23251;DHT22;11794;49.730;10.088;2022-12-07T10:10:25;4.30;99.90
23251;DHT22;11794;49.730;10.088;2022-12-07T10:15:54;4.40;99.90
23251;DHT22;11794;49.730;10.088;2022-12-07T10:18:30;4.60;99.90
23251;DHT22;11794;49.730;10.088;2022-12-07T10:23:28;4.90;99.90
23251;DHT22;11794;49.730;10.088;2022-12-07T10:25:54;4.90;99.90
23251;DHT22;11794;49.730;10.088;2022-12-07T10:28:20;4.70;99.90
23251;DHT22;11794;49.730;10.088;2022-12-07T10:30:59;4.70;99.90
23251;DHT22;11794;49.730;10.088;2022-12-07T10:33:40;4.60;99.90
23251;DHT22;11794;49.730;10.088;2022-12-07T10:36:32;4.60;99.90
23251;DHT22;11794;49.730;10.088;2022-12-07T10:39:18;4.50;99.90
23251;DHT22;11794;49.730;10.088;2022-12-07T10:44:25;4.40;99.90
23251;DHT22;11794;49.730;10.088;2022-12-07T10:47:01;4.40;99.90
23251;DHT22;11794;49.730;10.088;2022-12-07T10:52:30;4.30;99.90
23251;DHT22;11794;49.730;10.088;2022-12-07T10:55:08;4.40;99.90
23251;DHT22;11794;49.730;10.088;2022-12-07T11:00:23;4.60;99.90
23251;DHT22;11794;49.730;10.088;2022-12-07T11:05:49;4.70;99.90
23251;DHT22;11794;49.730;10.088;2022-12-07T11:16:21;4.70;99.90
23251;DHT22;11794;49.730;10.088;2022-12-07T11:22:39;4.60;99.90
23251;DHT22;11794;49.730;10.088;2022-12-07T11:27:39;4.70;99.90
23251;DHT22;11794;49.730;10.088;2022-12-07T11:30:20;4.70;99.90
23251;DHT22;11794;49.730;10.088;2022-12-07T11:38:24;4.80;99.90
23251;DHT22;11794;49.730;10.088;2022-12-07T11:40:55;4.80;99.90
23251;DHT22;11794;49.730;10.088;2022-12-07T11:43:45;4.80;99.90
23251;DHT22;11794;49.730;10.088;2022-12-07T11:46:15;4.90;99.90
23251;DHT22;11794;49.730;10.088;2022-12-07T11:48:52;4.80;99.90
23251;DHT22;11794;49.730;10.088;2022-12-07T11:51:21;4.80;99.90
23251;DHT22;11794;49.730;10.088;2022-12-07T11:54:23;4.80;99.90
23251;DHT22;11794;49.730;10.088;2022-12-07T11:56:52;4.80;99.90
23251;DHT22;11794;49.730;10.088;2022-12-07T12:01:52;4.80;99.90
23251;DHT22;11794;49.730;10.088;2022-12-07T12:07:07;4.90;99.90
23251;DHT22;11794;49.730;10.088;2022-12-07T12:09:40;4.90;99.90
23251;DHT22;11794;49.730;10.088;2022-12-07T12:12:25;4.90;99.90
23251;DHT22;11794;49.730;10.088;2022-12-07T12:23:16;5.00;99.90
23251;DHT22;11794;49.730;10.088;2022-12-07T12:25:47;4.90;99.90
23251;DHT22;11794;49.730;10.088;2022-12-07T12:31:17;4.90;99.90
23251;DHT22;11794;49.730;10.088;2022-12-07T12:33:57;4.80;99.90
23251;DHT22;11794;49.730;10.088;2022-12-07T12:46:56;4.90;99.90
23251;DHT22;11794;49.730;10.088;2022-12-07T12:54:37;5.00;99.90
23251;DHT22;11794;49.730;10.088;2022-12-07T13:02:29;5.00;99.90
23251;DHT22;11794;49.730;10.088;2022-12-07T13:05:14;5.00;99.90
23251;DHT22;11794;49.730;10.088;2022-12-07T13:15:52;4.90;99.90
23251;DHT22;11794;49.730;10.088;2022-12-07T13:21:39;4.90;99.90
23251;DHT22;11794;49.730;10.088;2022-12-07T13:29:13;4.60;99.90
23251;DHT22;11794;49.730;10.088;2022-12-07T13:31:52;4.60;99.90
23251;DHT22;11794;49.730;10.088;2022-12-07T13:34:36;4.50;99.90
23251;DHT22;11794;49.730;10.088;2022-12-07T13:39:56;4.50;99.90
23251;DHT22;11794;49.730;10.088;2022-12-07T13:42:27;4.50;99.90
23251;DHT22;11794;49.730;10.088;2022-12-07T13:44:54;4.40;99.90
23251;DHT22;11794;49.730;10.088;2022-12-07T13:50:00;4.40;99.90
23251;DHT22;11794;49.730;10.088;2022-12-07T13:52:30;4.50;99.90
23251;DHT22;11794;49.730;10.088;2022-12-07T13:55:05;4.60;99.90
23251;DHT22;11794;49.730;10.088;2022-12-07T13:57:33;4.70;99.90
23251;DHT22;11794;49.730;10.088;2022-12-07T14:00:03;4.70;99.90
23251;DHT22;11794;49.730;10.088;2022-12-07T14:02:31;4.80;99.90
23251;DHT22;11794;49.730;10.088;2022-12-07T14:05:15;4.60;99.90
23251;DHT22;11794;49.730;10.088;2022-12-07T14:08:01;4.50;99.90
23251;DHT22;11794;49.730;10.088;2022-12-07T14:10:30;4.40;99.90
23251;DHT22;11794;49.730;10.088;2022-12-07T14:12:57;4.40;99.90
23251;DHT22;11794;49.730;10.088;2022-12-07T14:15:29;4.40;99.90
23251;DHT22;11794;49.730;10.088;2022-12-07T14:17:57;4.40;99.90
23251;DHT22;11794;49.730;10.088;2022-12-07T14:20:38;4.50;99.90
23251;DHT22;11794;49.730;10.088;2022-12-07T14:23:04;4.60;99.90
23251;DHT22;11794;49.730;10.088;2022-12-07T14:26:19;4.60;99.90
23251;DHT22;11794;49.730;10.088;2022-12-07T14:28:45;4.60;99.90
23251;DHT22;11794;49.730;10.088;2022-12-07T14:31:13;4.70;99.90
23251;DHT22;11794;49.730;10.088;2022-12-07T14:33:40;4.70;99.90
23251;DHT22;11794;49.730;10.088;2022-12-07T14:36:08;4.70;99.90
23251;DHT22;11794;49.730;10.088;2022-12-07T14:38:34;4.60;99.90
23251;DHT22;11794;49.730;10.088;2022-12-07T14:41:00;4.50;99.90
23251;DHT22;11794;49.730;10.088;2022-12-07T14:43:44;4.50;99.90
23251;DHT22;11794;49.730;10.088;2022-12-07T14:46:09;4.40;99.90
23251;DHT22;11794;49.730;10.088;2022-12-07T14:48:35;4.30;99.90
23251;DHT22;11794;49.730;10.088;2022-12-07T14:51:00;4.30;99.90
23251;DHT22;11794;49.730;10.088;2022-12-07T14:53:30;4.10;99.90
23251;DHT22;11794;49.730;10.088;2022-12-07T14:55:57;4.00;99.90
23251;DHT22;11794;49.730;10.088;2022-12-07T14:58:22;4.00;99.90
23251;DHT22;11794;49.730;10.088;2022-12-07T15:00:48;3.90;99.90
23251;DHT22;11794;49.730;10.088;2022-12-07T15:03:14;3.80;99.90
23251;DHT22;11794;49.730;10.088;2022-12-07T15:05:40;3.70;99.90
23251;DHT22;11794;49.730;10.088;2022-12-07T15:08:08;3.60;99.90
23251;DHT22;11794;49.730;10.088;2022-12-07T15:10:34;3.50;99.90
23251;DHT22;11794;49.730;10.088;2022-12-07T15:13:04;3.50;99.90
23251;DHT22;11794;49.730;10.088;2022-12-07T15:15:50;3.40;99.90
23251;DHT22;11794;49.730;10.088;2022-12-07T15:18:17;3.30;99.90
23251;DHT22;11794;49.730;10.088;2022-12-07T15:20:43;3.20;99.90
23251;DHT22;11794;49.730;10.088;2022-12-07T15:23:09;3.10;99.90
23251;DHT22;11794;49.730;10.088;2022-12-07T15:25:35;3.10;99.90
23251;DHT22;11794;49.730;10.088;2022-12-07T15:28:00;3.10;99.90
23251;DHT22;11794;49.730;10.088;2022-12-07T15:30:26;3.00;99.90
23251;DHT22;11794;49.730;10.088;2022-12-07T15:32:52;2.90;99.90
23251;DHT22;11794;49.730;10.088;2022-12-07T15:35:18;2.90;99.90
23251;DHT22;11794;49.730;10.088;2022-12-07T15:37:45;2.80;99.90
23251;DHT22;11794;49.730;10.088;2022-12-07T15:40:11;2.70;99.90
23251;DHT22;11794;49.730;10.088;2022-12-07T15:42:37;2.70;99.90
23251;DHT22;11794;49.730;10.088;2022-12-07T15:45:04;2.60;99.90
23251;DHT22;11794;49.730;10.088;2022-12-07T15:47:31;2.60;99.90
23251;DHT22;11794;49.730;10.088;2022-12-07T15:49:56;2.60;99.90
23251;DHT22;11794;49.730;10.088;2022-12-07T15:52:22;2.60;99.90
23251;DHT22;11794;49.730;10.088;2022-12-07T15:54:48;2.70;99.90
23251;DHT22;11794;49.730;10.088;2022-12-07T15:57:13;2.80;99.90
23251;DHT22;11794;49.730;10.088;2022-12-07T15:59:39;2.80;99.90
23251;DHT22;11794;49.730;10.088;2022-12-07T16:02:05;2.90;99.90
23251;DHT22;11794;49.730;10.088;2022-12-07T16:04:30;2.90;99.90
23251;DHT22;11794;49.730;10.088;2022-12-07T16:06:56;3.00;99.90
23251;DHT22;11794;49.730;10.088;2022-12-07T16:09:22;3.00;99.90
23251;DHT22;11794;49.730;10.088;2022-12-07T16:11:47;3.00;99.90
23251;DHT22;11794;49.730;10.088;2022-12-07T16:14:15;3.10;99.90
23251;DHT22;11794;49.730;10.088;2022-12-07T16:16:41;3.10;99.90
23251;DHT22;11794;49.730;10.088;2022-12-07T16:19:07;3.20;99.90
23251;DHT22;11794;49.730;10.088;2022-12-07T16:21:34;3.20;99.90
23251;DHT22;11794;49.730;10.088;2022-12-07T16:24:01;3.20;99.90
23251;DHT22;11794;49.730;10.088;2022-12-07T16:26:26;3.20;99.90
23251;DHT22;11794;49.730;10.088;2022-12-07T16:28:53;3.10;99.90
23251;DHT22;11794;49.730;10.088;2022-12-07T16:31:22;3.20;99.90
23251;DHT22;11794;49.730;10.088;2022-12-07T16:33:48;3.20;99.90
23251;DHT22;11794;49.730;10.088;2022-12-07T16:36:15;3.20;99.90
23251;DHT22;11794;49.730;10.088;2022-12-07T16:38:42;3.30;99.90
23251;DHT22;11794;49.730;10.088;2022-12-07T16:41:09;3.20;99.90
23251;DHT22;11794;49.730;10.088;2022-12-07T16:43:35;3.20;99.90
23251;DHT22;11794;49.730;10.088;2022-12-07T16:46:01;3.30;99.90
23251;DHT22;11794;49.730;10.088;2022-12-07T16:48:27;3.20;99.90
23251;DHT22;11794;49.730;10.088;2022-12-07T16:50:53;3.20;99.90
23251;DHT22;11794;49.730;10.088;2022-12-07T16:53:23;3.10;99.90
23251;DHT22;11794;49.730;10.088;2022-12-07T16:55:50;3.10;99.90
23251;DHT22;11794;49.730;10.088;2022-12-07T16:58:16;3.00;99.90
23251;DHT22;11794;49.730;10.088;2022-12-07T17:00:43;3.00;99.90
23251;DHT22;11794;49.730;10.088;2022-12-07T17:03:09;2.90;99.90
23251;DHT22;11794;49.730;10.088;2022-12-07T17:05:40;2.90;99.90
23251;DHT22;11794;49.730;10.088;2022-12-07T17:08:06;2.90;99.90
23251;DHT22;11794;49.730;10.088;2022-12-07T17:10:33;2.80;99.90
23251;DHT22;11794;49.730;10.088;2022-12-07T17:13:00;2.90;99.90
23251;DHT22;11794;49.730;10.088;2022-12-07T17:15:26;2.90;99.90
23251;DHT22;11794;49.730;10.088;2022-12-07T17:17:54;2.90;99.90
23251;DHT22;11794;49.730;10.088;2022-12-07T17:20:21;2.80;99.90
23251;DHT22;11794;49.730;10.088;2022-12-07T17:22:47;2.90;99.90
23251;DHT22;11794;49.730;10.088;2022-12-07T17:25:13;2.90;99.90
23251;DHT22;11794;49.730;10.088;2022-12-07T17:27:40;2.80;99.90
23251;DHT22;11794;49.730;10.088;2022-12-07T17:30:06;2.70;99.90
23251;DHT22;11794;49.730;10.088;2022-12-07T17:32:32;2.70;99.90
23251;DHT22;11794;49.730;10.088;2022-12-07T17:34:58;2.60;99.90
23251;DHT22;11794;49.730;10.088;2022-12-07T17:37:23;2.60;99.90
23251;DHT22;11794;49.730;10.088;2022-12-07T17:39:49;2.60;99.90